<?xml version="1.0" encoding="UTF-8" standalone="no" ?>
<gpx xmlns="http://www.topografix.com/GPX/1/1" xmlns:xsi="http://www.w3.org/2001/XMLSchema-instance" xsi:schemaLocation="http://www.topografix.com/GPX/1/1 http://www.topografix.com/GPX/1/1/gpx.xsd" version="1.1" creator="VisuGPX - https://www.visugpx.com">
  <metadata>
    <name>Sentiers de Peygros</name>
    <desc><![CDATA[1 Boucle facile : accessible à tous.
2, 3 et 4 : singles techniques.]]></desc>
  </metadata>
  <wpt lat="43.60058" lon="6.91069">
    <ele>77</ele>
    <name><![CDATA[Départ]]></name>
  </wpt>
  <wpt lat="43.61564" lon="6.90198">
    <ele>283</ele>
    <name><![CDATA[Sommet]]></name>
  </wpt>
  <trk>
    <name><![CDATA[DH]]></name>
    <trkseg>
      <trkpt lat="43.61587" lon="6.90197">
        <ele>299.1072998</ele>
        <time>2012-03-31T12:09:07Z</time>
      </trkpt>
      <trkpt lat="43.61599" lon="6.90193">
        <ele>296.2235107</ele>
        <time>2012-03-31T12:09:12Z</time>
      </trkpt>
      <trkpt lat="43.61603" lon="6.90193">
        <ele>295.7426758</ele>
        <time>2012-03-31T12:09:23Z</time>
      </trkpt>
      <trkpt lat="43.61613" lon="6.90196">
        <ele>295.2619629</ele>
        <time>2012-03-31T12:09:26Z</time>
      </trkpt>
      <trkpt lat="43.6163" lon="6.9019">
        <ele>292.3781738</ele>
        <time>2012-03-31T12:09:31Z</time>
      </trkpt>
      <trkpt lat="43.61641" lon="6.9019">
        <ele>290.9361572</ele>
        <time>2012-03-31T12:09:37Z</time>
      </trkpt>
      <trkpt lat="43.61644" lon="6.90192">
        <ele>289.4941406</ele>
        <time>2012-03-31T12:09:40Z</time>
      </trkpt>
      <trkpt lat="43.6165" lon="6.90196">
        <ele>288.532959</ele>
        <time>2012-03-31T12:09:51Z</time>
      </trkpt>
      <trkpt lat="43.61651" lon="6.90203">
        <ele>289.0135498</ele>
        <time>2012-03-31T12:09:57Z</time>
      </trkpt>
      <trkpt lat="43.61658" lon="6.90201">
        <ele>287.5714111</ele>
        <time>2012-03-31T12:10:03Z</time>
      </trkpt>
      <trkpt lat="43.61664" lon="6.90189">
        <ele>286.6102295</ele>
        <time>2012-03-31T12:10:15Z</time>
      </trkpt>
      <trkpt lat="43.61676" lon="6.9019">
        <ele>285.6488037</ele>
        <time>2012-03-31T12:10:22Z</time>
      </trkpt>
      <trkpt lat="43.6168" lon="6.90185">
        <ele>282.7650146</ele>
        <time>2012-03-31T12:10:37Z</time>
      </trkpt>
      <trkpt lat="43.61678" lon="6.90166">
        <ele>279.4002686</ele>
        <time>2012-03-31T12:10:44Z</time>
      </trkpt>
      <trkpt lat="43.61676" lon="6.90163">
        <ele>279.4002686</ele>
        <time>2012-03-31T12:10:45Z</time>
      </trkpt>
      <trkpt lat="43.61665" lon="6.90144">
        <ele>276.9970703</ele>
        <time>2012-03-31T12:10:52Z</time>
      </trkpt>
      <trkpt lat="43.61668" lon="6.9014">
        <ele>275.0744629</ele>
        <time>2012-03-31T12:10:56Z</time>
      </trkpt>
      <trkpt lat="43.61669" lon="6.90142">
        <ele>275.0744629</ele>
        <time>2012-03-31T12:10:58Z</time>
      </trkpt>
      <trkpt lat="43.61671" lon="6.90143">
        <ele>274.59375</ele>
        <time>2012-03-31T12:11:02Z</time>
      </trkpt>
      <trkpt lat="43.61674" lon="6.90139">
        <ele>273.6324463</ele>
        <time>2012-03-31T12:11:05Z</time>
      </trkpt>
      <trkpt lat="43.61675" lon="6.90128">
        <ele>271.7097168</ele>
        <time>2012-03-31T12:11:15Z</time>
      </trkpt>
      <trkpt lat="43.61674" lon="6.90124">
        <ele>270.2677002</ele>
        <time>2012-03-31T12:11:17Z</time>
      </trkpt>
      <trkpt lat="43.61664" lon="6.90107">
        <ele>266.9031982</ele>
        <time>2012-03-31T12:11:25Z</time>
      </trkpt>
      <trkpt lat="43.61659" lon="6.90101">
        <ele>265.4613037</ele>
        <time>2012-03-31T12:11:29Z</time>
      </trkpt>
      <trkpt lat="43.61655" lon="6.90097">
        <ele>264.4998779</ele>
        <time>2012-03-31T12:11:32Z</time>
      </trkpt>
      <trkpt lat="43.61646" lon="6.90089">
        <ele>263.0578613</ele>
        <time>2012-03-31T12:11:38Z</time>
      </trkpt>
      <trkpt lat="43.61641" lon="6.90084">
        <ele>261.6159668</ele>
        <time>2012-03-31T12:11:41Z</time>
      </trkpt>
      <trkpt lat="43.61623" lon="6.90069">
        <ele>258.2513428</ele>
        <time>2012-03-31T12:11:53Z</time>
      </trkpt>
      <trkpt lat="43.61619" lon="6.90066">
        <ele>257.770752</ele>
        <time>2012-03-31T12:11:55Z</time>
      </trkpt>
      <trkpt lat="43.61593" lon="6.90051">
        <ele>256.3287354</ele>
        <time>2012-03-31T12:12:09Z</time>
      </trkpt>
      <trkpt lat="43.61573" lon="6.90053">
        <ele>256.3287354</ele>
        <time>2012-03-31T12:12:20Z</time>
      </trkpt>
      <trkpt lat="43.61569" lon="6.90045">
        <ele>255.3673096</ele>
        <time>2012-03-31T12:12:26Z</time>
      </trkpt>
      <trkpt lat="43.61574" lon="6.90036">
        <ele>252.4833984</ele>
        <time>2012-03-31T12:12:31Z</time>
      </trkpt>
      <trkpt lat="43.61571" lon="6.90028">
        <ele>249.5994873</ele>
        <time>2012-03-31T12:12:35Z</time>
      </trkpt>
      <trkpt lat="43.61566" lon="6.90024">
        <ele>248.1575928</ele>
        <time>2012-03-31T12:12:38Z</time>
      </trkpt>
      <trkpt lat="43.61563" lon="6.90021">
        <ele>247.1960449</ele>
        <time>2012-03-31T12:12:40Z</time>
      </trkpt>
      <trkpt lat="43.61556" lon="6.90022">
        <ele>244.7928467</ele>
        <time>2012-03-31T12:12:43Z</time>
      </trkpt>
      <trkpt lat="43.61538" lon="6.90025">
        <ele>243.3508301</ele>
        <time>2012-03-31T12:12:52Z</time>
      </trkpt>
      <trkpt lat="43.61533" lon="6.90017">
        <ele>239.5054932</ele>
        <time>2012-03-31T12:12:57Z</time>
      </trkpt>
      <trkpt lat="43.61533" lon="6.90012">
        <ele>237.5828857</ele>
        <time>2012-03-31T12:12:59Z</time>
      </trkpt>
      <trkpt lat="43.61535" lon="6.90011">
        <ele>236.6217041</ele>
        <time>2012-03-31T12:13:01Z</time>
      </trkpt>
      <trkpt lat="43.61549" lon="6.89996">
        <ele>235.6602783</ele>
        <time>2012-03-31T12:13:16Z</time>
      </trkpt>
      <trkpt lat="43.61567" lon="6.8999">
        <ele>237.5828857</ele>
        <time>2012-03-31T12:13:29Z</time>
      </trkpt>
      <trkpt lat="43.61576" lon="6.89986">
        <ele>237.1022949</ele>
        <time>2012-03-31T12:13:34Z</time>
      </trkpt>
      <trkpt lat="43.6158" lon="6.8998">
        <ele>236.1409912</ele>
        <time>2012-03-31T12:13:37Z</time>
      </trkpt>
      <trkpt lat="43.61587" lon="6.89974">
        <ele>234.6990967</ele>
        <time>2012-03-31T12:13:41Z</time>
      </trkpt>
      <trkpt lat="43.61596" lon="6.89965">
        <ele>231.3343506</ele>
        <time>2012-03-31T12:13:47Z</time>
      </trkpt>
      <trkpt lat="43.61604" lon="6.89963">
        <ele>229.892334</ele>
        <time>2012-03-31T12:13:50Z</time>
      </trkpt>
      <trkpt lat="43.61607" lon="6.89963">
        <ele>228.4504395</ele>
        <time>2012-03-31T12:13:51Z</time>
      </trkpt>
      <trkpt lat="43.61612" lon="6.89962">
        <ele>228.4504395</ele>
        <time>2012-03-31T12:13:53Z</time>
      </trkpt>
      <trkpt lat="43.61619" lon="6.89966">
        <ele>227.4891357</ele>
        <time>2012-03-31T12:13:57Z</time>
      </trkpt>
      <trkpt lat="43.61625" lon="6.89963">
        <ele>227.0085449</ele>
        <time>2012-03-31T12:14:01Z</time>
      </trkpt>
      <trkpt lat="43.6163" lon="6.89959">
        <ele>225.0859375</ele>
        <time>2012-03-31T12:14:04Z</time>
      </trkpt>
      <trkpt lat="43.61635" lon="6.89958">
        <ele>223.6437988</ele>
        <time>2012-03-31T12:14:06Z</time>
      </trkpt>
      <trkpt lat="43.61639" lon="6.89957">
        <ele>222.2017822</ele>
        <time>2012-03-31T12:14:08Z</time>
      </trkpt>
      <trkpt lat="43.61647" lon="6.89959">
        <ele>219.798584</ele>
        <time>2012-03-31T12:14:11Z</time>
      </trkpt>
      <trkpt lat="43.61677" lon="6.89951">
        <ele>215.9532471</ele>
        <time>2012-03-31T12:14:23Z</time>
      </trkpt>
      <trkpt lat="43.61681" lon="6.89942">
        <ele>213.5500488</ele>
        <time>2012-03-31T12:14:27Z</time>
      </trkpt>
      <trkpt lat="43.61684" lon="6.89939">
        <ele>212.1080322</ele>
        <time>2012-03-31T12:14:29Z</time>
      </trkpt>
      <trkpt lat="43.61688" lon="6.89936">
        <ele>209.704834</ele>
        <time>2012-03-31T12:14:33Z</time>
      </trkpt>
      <trkpt lat="43.61691" lon="6.89933">
        <ele>207.7821045</ele>
        <time>2012-03-31T12:14:35Z</time>
      </trkpt>
      <trkpt lat="43.6169" lon="6.89928">
        <ele>205.8594971</ele>
        <time>2012-03-31T12:14:38Z</time>
      </trkpt>
      <trkpt lat="43.61689" lon="6.89928">
        <ele>204.8980713</ele>
        <time>2012-03-31T12:14:40Z</time>
      </trkpt>
      <trkpt lat="43.61688" lon="6.89926">
        <ele>204.4174805</ele>
        <time>2012-03-31T12:14:48Z</time>
      </trkpt>
      <trkpt lat="43.61691" lon="6.8992">
        <ele>202.9754639</ele>
        <time>2012-03-31T12:14:52Z</time>
      </trkpt>
      <trkpt lat="43.61691" lon="6.89916">
        <ele>200.0916748</ele>
        <time>2012-03-31T12:14:55Z</time>
      </trkpt>
      <trkpt lat="43.61691" lon="6.89911">
        <ele>198.1689453</ele>
        <time>2012-03-31T12:15:04Z</time>
      </trkpt>
      <trkpt lat="43.61695" lon="6.89909">
        <ele>197.2075195</ele>
        <time>2012-03-31T12:15:07Z</time>
      </trkpt>
      <trkpt lat="43.61697" lon="6.89909">
        <ele>196.2463379</ele>
        <time>2012-03-31T12:15:09Z</time>
      </trkpt>
      <trkpt lat="43.61706" lon="6.89909">
        <ele>191.4395752</ele>
        <time>2012-03-31T12:15:24Z</time>
      </trkpt>
      <trkpt lat="43.61706" lon="6.89908">
        <ele>191.4395752</ele>
        <time>2012-03-31T12:15:25Z</time>
      </trkpt>
      <trkpt lat="43.61708" lon="6.89908">
        <ele>189.9976807</ele>
        <time>2012-03-31T12:15:29Z</time>
      </trkpt>
      <trkpt lat="43.61708" lon="6.89908">
        <ele>205.2617188</ele>
      </trkpt>
      <trkpt lat="43.61712" lon="6.89896">
        <ele>202.3203125</ele>
      </trkpt>
    </trkseg>
  </trk>
</gpx>